sensor_id;sensor_type;location;lat;lon;timestamp;pressure;altitude;pressure_sealevel;temperature;humidity
40918;BME280;26644;50.248;19.032;2023-04-05T00:01:06;98630.50;;;-1.85;58.54
40918;BME280;26644;50.248;19.032;2023-04-05T00:04:13;98621.72;;;-2.01;58.74
40918;BME280;26644;50.248;19.032;2023-04-05T00:07:21;98625.88;;;-1.98;58.83
40918;BME280;26644;50.248;19.032;2023-04-05T00:10:28;98610.94;;;-2.01;58.54
40918;BME280;26644;50.248;19.032;2023-04-05T00:13:33;98605.09;;;-2.04;58.05
40918;BME280;26644;50.248;19.032;2023-04-05T00:16:41;98621.09;;;-1.96;58.02
40918;BME280;26644;50.248;19.032;2023-04-05T00:19:45;98606.19;;;-1.99;58.13
40918;BME280;26644;50.248;19.032;2023-04-05T00:22:52;98614.97;;;-1.90;58.59
40918;BME280;26644;50.248;19.032;2023-04-05T00:25:56;98612.91;;;-1.88;58.61
40918;BME280;26644;50.248;19.032;2023-04-05T00:29:02;98602.13;;;-1.88;57.91
40918;BME280;26644;50.248;19.032;2023-04-05T00:32:09;98588.00;;;-1.97;58.01
40918;BME280;26644;50.248;19.032;2023-04-05T00:35:14;98586.78;;;-1.94;57.96
40918;BME280;26644;50.248;19.032;2023-04-05T00:38:19;98594.66;;;-1.93;58.43
40918;BME280;26644;50.248;19.032;2023-04-05T00:41:24;98591.75;;;-1.91;58.61
40918;BME280;26644;50.248;19.032;2023-04-05T00:44:29;98589.47;;;-1.94;59.05
40918;BME280;26644;50.248;19.032;2023-04-05T00:47:40;98586.47;;;-2.06;59.09
40918;BME280;26644;50.248;19.032;2023-04-05T00:50:48;98588.50;;;-2.08;59.03
40918;BME280;26644;50.248;19.032;2023-04-05T00:53:54;98592.88;;;-2.07;59.28
40918;BME280;26644;50.248;19.032;2023-04-05T00:56:59;98577.69;;;-2.15;59.04
40918;BME280;26644;50.248;19.032;2023-04-05T01:00:06;98570.03;;;-2.18;58.61
40918;BME280;26644;50.248;19.032;2023-04-05T01:03:14;98592.88;;;-2.07;58.32
40918;BME280;26644;50.248;19.032;2023-04-05T01:06:32;98596.22;;;-2.05;58.23
40918;BME280;26644;50.248;19.032;2023-04-05T01:09:56;98579.47;;;-2.00;58.39
40918;BME280;26644;50.248;19.032;2023-04-05T01:13:02;98572.41;;;-2.01;58.74
40918;BME280;26644;50.248;19.032;2023-04-05T01:16:09;98575.22;;;-1.88;59.12
40918;BME280;26644;50.248;19.032;2023-04-05T01:19:17;98568.81;;;-1.87;59.03
40918;BME280;26644;50.248;19.032;2023-04-05T01:23:02;98569.31;;;-1.77;59.03
40918;BME280;26644;50.248;19.032;2023-04-05T01:26:45;98582.03;;;-1.64;58.63
40918;BME280;26644;50.248;19.032;2023-04-05T01:30:12;98561.31;;;-1.63;58.74
40918;BME280;26644;50.248;19.032;2023-04-05T01:33:30;98582.06;;;-1.57;59.14
40918;BME280;26644;50.248;19.032;2023-04-05T01:36:44;98572.78;;;-1.54;58.84
40918;BME280;26644;50.248;19.032;2023-04-05T01:39:58;98565.50;;;-1.54;58.68
40918;BME280;26644;50.248;19.032;2023-04-05T01:43:12;98573.06;;;-1.43;58.87
40918;BME280;26644;50.248;19.032;2023-04-05T01:46:20;98575.19;;;-1.31;58.47
40918;BME280;26644;50.248;19.032;2023-04-05T01:49:25;98573.38;;;-1.24;58.56
40918;BME280;26644;50.248;19.032;2023-04-05T01:52:31;98568.41;;;-1.14;58.35
40918;BME280;26644;50.248;19.032;2023-04-05T01:55:35;98564.50;;;-1.11;58.42
40918;BME280;26644;50.248;19.032;2023-04-05T01:58:41;98554.91;;;-1.20;59.37
40918;BME280;26644;50.248;19.032;2023-04-05T02:01:48;98542.59;;;-1.43;60.66
40918;BME280;26644;50.248;19.032;2023-04-05T02:04:53;98550.81;;;-1.51;61.41
40918;BME280;26644;50.248;19.032;2023-04-05T02:07:58;98556.78;;;-1.56;61.88
40918;BME280;26644;50.248;19.032;2023-04-05T02:11:03;98555.00;;;-1.49;62.03
40918;BME280;26644;50.248;19.032;2023-04-05T02:14:07;98532.63;;;-1.49;60.44
40918;BME280;26644;50.248;19.032;2023-04-05T02:17:16;98554.50;;;-1.24;59.67
40918;BME280;26644;50.248;19.032;2023-04-05T02:20:22;98549.34;;;-1.12;58.79
40918;BME280;26644;50.248;19.032;2023-04-05T02:23:27;98545.88;;;-0.99;58.11
40918;BME280;26644;50.248;19.032;2023-04-05T02:26:31;98539.06;;;-0.95;58.46
40918;BME280;26644;50.248;19.032;2023-04-05T02:29:37;98547.38;;;-0.90;59.21
40918;BME280;26644;50.248;19.032;2023-04-05T02:32:44;98537.63;;;-0.84;59.60
40918;BME280;26644;50.248;19.032;2023-04-05T02:35:51;98542.84;;;-0.83;59.53
40918;BME280;26644;50.248;19.032;2023-04-05T02:38:56;98531.00;;;-0.88;59.94
40918;BME280;26644;50.248;19.032;2023-04-05T02:42:01;98506.91;;;-1.03;59.46
40918;BME280;26644;50.248;19.032;2023-04-05T02:45:07;98538.28;;;-0.76;58.76
40918;BME280;26644;50.248;19.032;2023-04-05T02:48:15;98542.03;;;-0.70;57.79
40918;BME280;26644;50.248;19.032;2023-04-05T02:51:20;98511.31;;;-0.76;56.84
40918;BME280;26644;50.248;19.032;2023-04-05T02:54:25;98528.16;;;-0.60;57.25
40918;BME280;26644;50.248;19.032;2023-04-05T02:57:34;98525.88;;;-0.63;56.40
40918;BME280;26644;50.248;19.032;2023-04-05T03:00:55;98525.47;;;-0.67;55.41
40918;BME280;26644;50.248;19.032;2023-04-05T03:04:08;98533.75;;;-0.68;56.35
40918;BME280;26644;50.248;19.032;2023-04-05T03:07:16;98506.34;;;-0.79;56.23
40918;BME280;26644;50.248;19.032;2023-04-05T03:10:23;98517.34;;;-0.80;54.27
40918;BME280;26644;50.248;19.032;2023-04-05T03:13:37;98524.38;;;-0.79;53.54
40918;BME280;26644;50.248;19.032;2023-04-05T03:16:48;98521.06;;;-0.81;53.89
40918;BME280;26644;50.248;19.032;2023-04-05T03:20:03;98529.38;;;-0.83;53.70
40918;BME280;26644;50.248;19.032;2023-04-05T03:23:10;98529.97;;;-0.87;53.53
40918;BME280;26644;50.248;19.032;2023-04-05T03:26:15;98518.72;;;-0.98;53.41
40918;BME280;26644;50.248;19.032;2023-04-05T03:29:24;98528.47;;;-0.97;53.47
40918;BME280;26644;50.248;19.032;2023-04-05T03:32:30;98517.09;;;-0.99;53.39
40918;BME280;26644;50.248;19.032;2023-04-05T03:35:45;98522.66;;;-1.00;53.61
40918;BME280;26644;50.248;19.032;2023-04-05T03:38:52;98516.66;;;-1.02;53.38
40918;BME280;26644;50.248;19.032;2023-04-05T03:41:57;98521.41;;;-1.04;53.60
40918;BME280;26644;50.248;19.032;2023-04-05T03:45:05;98526.75;;;-1.11;53.70
40918;BME280;26644;50.248;19.032;2023-04-05T03:48:10;98526.53;;;-1.16;53.61
40918;BME280;26644;50.248;19.032;2023-04-05T03:51:19;98532.75;;;-1.22;53.84
40918;BME280;26644;50.248;19.032;2023-04-05T03:54:24;98527.56;;;-1.24;53.96
40918;BME280;26644;50.248;19.032;2023-04-05T03:57:33;98522.56;;;-1.27;53.92
40918;BME280;26644;50.248;19.032;2023-04-05T04:00:52;98524.88;;;-1.24;53.81
40918;BME280;26644;50.248;19.032;2023-04-05T04:03:59;98507.00;;;-1.32;53.66
40918;BME280;26644;50.248;19.032;2023-04-05T04:07:08;98512.03;;;-1.15;53.70
40918;BME280;26644;50.248;19.032;2023-04-05T04:10:15;98506.84;;;-1.17;53.56
40918;BME280;26644;50.248;19.032;2023-04-05T04:13:25;98513.94;;;-1.09;54.11
40918;BME280;26644;50.248;19.032;2023-04-05T04:16:46;98521.19;;;-1.03;54.15
40918;BME280;26644;50.248;19.032;2023-04-05T04:20:16;98524.31;;;-0.99;54.36
40918;BME280;26644;50.248;19.032;2023-04-05T04:23:36;98524.97;;;-0.97;54.40
40918;BME280;26644;50.248;19.032;2023-04-05T04:27:18;98512.72;;;-1.00;54.28
40918;BME280;26644;50.248;19.032;2023-04-05T04:30:42;98518.13;;;-1.00;54.34
40918;BME280;26644;50.248;19.032;2023-04-05T04:34:12;98525.38;;;-0.94;54.76
40918;BME280;26644;50.248;19.032;2023-04-05T04:37:45;98516.47;;;-0.94;54.33
40918;BME280;26644;50.248;19.032;2023-04-05T04:41:31;98511.03;;;-1.08;54.65
40918;BME280;26644;50.248;19.032;2023-04-05T04:45:05;98506.66;;;-1.15;55.71
40918;BME280;26644;50.248;19.032;2023-04-05T04:48:35;98507.28;;;-1.13;55.65
40918;BME280;26644;50.248;19.032;2023-04-05T04:51:48;98524.94;;;-1.04;55.49
40918;BME280;26644;50.248;19.032;2023-04-05T04:54:56;98506.88;;;-1.10;55.45
40918;BME280;26644;50.248;19.032;2023-04-05T04:58:06;98519.78;;;-0.99;55.48
40918;BME280;26644;50.248;19.032;2023-04-05T05:01:13;98518.72;;;-0.98;55.21
40918;BME280;26644;50.248;19.032;2023-04-05T05:04:18;98515.00;;;-0.97;55.10
40918;BME280;26644;50.248;19.032;2023-04-05T05:07:23;98526.25;;;-0.86;55.41
40918;BME280;26644;50.248;19.032;2023-04-05T05:10:28;98535.16;;;-0.79;55.23
40918;BME280;26644;50.248;19.032;2023-04-05T05:13:39;98503.44;;;-0.84;54.82
40918;BME280;26644;50.248;19.032;2023-04-05T05:16:50;98537.28;;;-0.68;54.58
40918;BME280;26644;50.248;19.032;2023-04-05T05:20:01;98542.25;;;-0.58;54.32
40918;BME280;26644;50.248;19.032;2023-04-05T05:23:10;98534.81;;;-0.49;54.15
40918;BME280;26644;50.248;19.032;2023-04-05T05:26:30;98537.31;;;-0.41;54.18
40918;BME280;26644;50.248;19.032;2023-04-05T05:29:37;98528.63;;;-0.43;54.28
40918;BME280;26644;50.248;19.032;2023-04-05T05:32:42;98541.91;;;-0.21;53.99
40918;BME280;26644;50.248;19.032;2023-04-05T05:35:48;98543.97;;;-0.10;53.91
40918;BME280;26644;50.248;19.032;2023-04-05T05:38:53;98542.75;;;0.13;53.55
40918;BME280;26644;50.248;19.032;2023-04-05T05:41:58;98548.50;;;0.36;53.44
40918;BME280;26644;50.248;19.032;2023-04-05T05:45:06;98543.69;;;0.58;52.80
40918;BME280;26644;50.248;19.032;2023-04-05T05:48:13;98539.28;;;0.71;52.54
40918;BME280;26644;50.248;19.032;2023-04-05T05:51:17;98551.31;;;0.88;53.43
40918;BME280;26644;50.248;19.032;2023-04-05T05:54:24;98543.22;;;0.82;54.44
40918;BME280;26644;50.248;19.032;2023-04-05T05:57:29;98534.31;;;0.68;54.86
40918;BME280;26644;50.248;19.032;2023-04-05T06:00:37;98541.16;;;0.70;55.06
40918;BME280;26644;50.248;19.032;2023-04-05T06:03:41;98541.81;;;0.72;55.18
40918;BME280;26644;50.248;19.032;2023-04-05T06:06:47;98538.66;;;0.75;55.32
40918;BME280;26644;50.248;19.032;2023-04-05T06:09:52;98540.53;;;0.82;54.50
40918;BME280;26644;50.248;19.032;2023-04-05T06:12:57;98544.00;;;0.96;53.14
40918;BME280;26644;50.248;19.032;2023-04-05T06:16:05;98540.22;;;1.03;52.82
40918;BME280;26644;50.248;19.032;2023-04-05T06:19:10;98540.13;;;1.23;52.74
40918;BME280;26644;50.248;19.032;2023-04-05T06:22:14;98540.94;;;1.31;52.23
40918;BME280;26644;50.248;19.032;2023-04-05T06:25:20;98544.81;;;1.41;52.16
40918;BME280;26644;50.248;19.032;2023-04-05T06:28:24;98544.72;;;1.55;52.07
40918;BME280;26644;50.248;19.032;2023-04-05T06:31:34;98536.75;;;1.67;51.34
40918;BME280;26644;50.248;19.032;2023-04-05T06:34:39;98543.63;;;1.94;51.17
40918;BME280;26644;50.248;19.032;2023-04-05T06:37:44;98542.53;;;2.02;50.61
40918;BME280;26644;50.248;19.032;2023-04-05T06:40:48;98552.69;;;2.07;50.13
40918;BME280;26644;50.248;19.032;2023-04-05T06:43:54;98549.97;;;2.07;50.41
40918;BME280;26644;50.248;19.032;2023-04-05T06:47:01;98533.47;;;2.34;50.95
40918;BME280;26644;50.248;19.032;2023-04-05T06:50:08;98552.59;;;3.32;49.27
40918;BME280;26644;50.248;19.032;2023-04-05T06:53:12;98555.69;;;4.20;47.08
40918;BME280;26644;50.248;19.032;2023-04-05T06:56:20;98567.28;;;4.74;45.11
40918;BME280;26644;50.248;19.032;2023-04-05T06:59:26;98564.66;;;5.32;45.05
40918;BME280;26644;50.248;19.032;2023-04-05T07:02:34;98541.72;;;6.03;43.05
40918;BME280;26644;50.248;19.032;2023-04-05T07:05:38;98572.53;;;6.93;42.06
40918;BME280;26644;50.248;19.032;2023-04-05T07:08:44;98575.66;;;7.96;40.47
40918;BME280;26644;50.248;19.032;2023-04-05T07:11:48;98577.03;;;8.64;38.83
40918;BME280;26644;50.248;19.032;2023-04-05T07:14:54;98563.59;;;9.05;38.26
40918;BME280;26644;50.248;19.032;2023-04-05T07:18:01;98553.16;;;9.65;36.20
40918;BME280;26644;50.248;19.032;2023-04-05T07:21:06;98582.03;;;10.35;34.69
40918;BME280;26644;50.248;19.032;2023-04-05T07:24:11;98576.88;;;10.59;33.36
40918;BME280;26644;50.248;19.032;2023-04-05T07:27:16;98575.66;;;11.01;32.70
40918;BME280;26644;50.248;19.032;2023-04-05T07:30:20;98579.41;;;11.36;32.10
40918;BME280;26644;50.248;19.032;2023-04-05T07:33:28;98580.63;;;11.70;31.80
40918;BME280;26644;50.248;19.032;2023-04-05T07:36:33;98585.63;;;12.07;31.46
40918;BME280;26644;50.248;19.032;2023-04-05T07:39:38;98586.78;;;12.41;30.91
40918;BME280;26644;50.248;19.032;2023-04-05T07:42:43;98592.03;;;12.72;30.43
40918;BME280;26644;50.248;19.032;2023-04-05T07:45:48;98597.63;;;13.20;29.85
40918;BME280;26644;50.248;19.032;2023-04-05T07:48:56;98595.66;;;12.97;28.69
40918;BME280;26644;50.248;19.032;2023-04-05T07:52:01;98590.31;;;13.05;29.61
40918;BME280;26644;50.248;19.032;2023-04-05T07:55:07;98585.38;;;13.32;29.09
40918;BME280;26644;50.248;19.032;2023-04-05T07:58:13;98584.34;;;13.47;28.86
40918;BME280;26644;50.248;19.032;2023-04-05T08:01:17;98581.66;;;13.85;29.12
40918;BME280;26644;50.248;19.032;2023-04-05T08:04:27;98589.63;;;14.24;27.42
40918;BME280;26644;50.248;19.032;2023-04-05T08:07:31;98589.94;;;14.23;25.54
40918;BME280;26644;50.248;19.032;2023-04-05T08:10:37;98575.16;;;14.14;25.38
40918;BME280;26644;50.248;19.032;2023-04-05T08:13:42;98584.22;;;13.08;26.06
40918;BME280;26644;50.248;19.032;2023-04-05T08:16:47;98577.88;;;12.54;27.18
40918;BME280;26644;50.248;19.032;2023-04-05T08:19:54;98574.72;;;11.97;25.96
40918;BME280;26644;50.248;19.032;2023-04-05T08:23:00;98571.13;;;11.47;26.65
40918;BME280;26644;50.248;19.032;2023-04-05T08:26:04;98568.84;;;10.83;27.59
40918;BME280;26644;50.248;19.032;2023-04-05T08:29:09;98563.41;;;11.43;27.82
40918;BME280;26644;50.248;19.032;2023-04-05T08:32:14;98562.00;;;11.56;26.75
40918;BME280;26644;50.248;19.032;2023-04-05T08:35:22;98566.63;;;10.80;27.38
40918;BME280;26644;50.248;19.032;2023-04-05T08:38:26;98557.06;;;10.16;27.99
40918;BME280;26644;50.248;19.032;2023-04-05T08:41:34;98552.59;;;9.68;27.97
40918;BME280;26644;50.248;19.032;2023-04-05T08:44:44;98565.00;;;9.86;27.31
40918;BME280;26644;50.248;19.032;2023-04-05T08:47:55;98548.84;;;10.31;26.71
40918;BME280;26644;50.248;19.032;2023-04-05T08:51:02;98553.75;;;9.83;26.42
40918;BME280;26644;50.248;19.032;2023-04-05T08:54:10;98555.38;;;9.00;27.37
40918;BME280;26644;50.248;19.032;2023-04-05T08:57:15;98549.72;;;8.31;28.35
40918;BME280;26644;50.248;19.032;2023-04-05T09:00:22;98548.13;;;7.75;29.39
40918;BME280;26644;50.248;19.032;2023-04-05T09:03:35;98549.81;;;6.88;29.72
40918;BME280;26644;50.248;19.032;2023-04-05T09:06:48;98549.78;;;6.66;30.50
40918;BME280;26644;50.248;19.032;2023-04-05T09:09:55;98544.13;;;7.34;30.36
40918;BME280;26644;50.248;19.032;2023-04-05T09:13:03;98543.25;;;8.48;28.83
40918;BME280;26644;50.248;19.032;2023-04-05T09:16:09;98531.53;;;8.95;28.24
40918;BME280;26644;50.248;19.032;2023-04-05T09:19:14;98549.69;;;8.69;28.33
40918;BME280;26644;50.248;19.032;2023-04-05T09:22:21;98553.31;;;8.37;28.10
40918;BME280;26644;50.248;19.032;2023-04-05T09:25:34;98556.47;;;7.91;28.83
40918;BME280;26644;50.248;19.032;2023-04-05T09:28:40;98551.69;;;7.76;29.11
40918;BME280;26644;50.248;19.032;2023-04-05T09:31:46;98549.31;;;7.35;30.40
40918;BME280;26644;50.248;19.032;2023-04-05T09:34:52;98551.16;;;6.85;31.44
40918;BME280;26644;50.248;19.032;2023-04-05T09:38:03;98538.66;;;6.33;31.79
40918;BME280;26644;50.248;19.032;2023-04-05T09:41:10;98547.66;;;6.17;32.14
40918;BME280;26644;50.248;19.032;2023-04-05T09:44:16;98543.81;;;6.69;31.17
40918;BME280;26644;50.248;19.032;2023-04-05T09:47:22;98529.97;;;7.64;30.27
40918;BME280;26644;50.248;19.032;2023-04-05T09:50:35;98538.75;;;8.69;29.05
40918;BME280;26644;50.248;19.032;2023-04-05T09:54:01;98536.47;;;9.92;28.03
40918;BME280;26644;50.248;19.032;2023-04-05T09:57:09;98542.25;;;10.32;26.45
40918;BME280;26644;50.248;19.032;2023-04-05T10:00:18;98543.59;;;9.73;26.38
40918;BME280;26644;50.248;19.032;2023-04-05T10:03:25;98535.59;;;8.92;27.04
40918;BME280;26644;50.248;19.032;2023-04-05T10:06:37;98541.19;;;8.27;27.48
40918;BME280;26644;50.248;19.032;2023-04-05T10:09:47;98533.81;;;8.28;28.39
40918;BME280;26644;50.248;19.032;2023-04-05T10:12:52;98528.03;;;8.62;27.96
40918;BME280;26644;50.248;19.032;2023-04-05T10:16:00;98522.25;;;9.01;27.81
40918;BME280;26644;50.248;19.032;2023-04-05T10:19:19;98525.47;;;9.67;27.83
40918;BME280;26644;50.248;19.032;2023-04-05T10:22:37;98528.78;;;10.36;26.89
40918;BME280;26644;50.248;19.032;2023-04-05T10:26:03;98531.00;;;10.28;26.08
40918;BME280;26644;50.248;19.032;2023-04-05T10:29:24;98524.38;;;9.68;26.30
40918;BME280;26644;50.248;19.032;2023-04-05T10:33:02;98523.09;;;9.07;27.36
40918;BME280;26644;50.248;19.032;2023-04-05T10:36:24;98524.00;;;8.75;28.16
40918;BME280;26644;50.248;19.032;2023-04-05T10:39:44;98508.38;;;8.27;28.72
40918;BME280;26644;50.248;19.032;2023-04-05T10:42:53;98496.47;;;7.74;28.97
40918;BME280;26644;50.248;19.032;2023-04-05T10:45:58;98489.41;;;7.23;29.78
40918;BME280;26644;50.248;19.032;2023-04-05T10:49:15;98502.41;;;7.16;30.24
40918;BME280;26644;50.248;19.032;2023-04-05T10:52:25;98481.19;;;6.79;30.48
40918;BME280;26644;50.248;19.032;2023-04-05T10:55:33;98493.00;;;6.62;30.89
40918;BME280;26644;50.248;19.032;2023-04-05T10:58:43;98488.78;;;6.55;31.04
40918;BME280;26644;50.248;19.032;2023-04-05T11:01:50;98489.34;;;6.18;30.74
40918;BME280;26644;50.248;19.032;2023-04-05T11:04:56;98492.00;;;6.13;30.87
40918;BME280;26644;50.248;19.032;2023-04-05T11:08:08;98484.72;;;6.18;30.87
40918;BME280;26644;50.248;19.032;2023-04-05T11:11:16;98490.91;;;6.31;30.98
40918;BME280;26644;50.248;19.032;2023-04-05T11:14:34;98482.28;;;6.39;31.30
40918;BME280;26644;50.248;19.032;2023-04-05T11:17:39;98488.47;;;6.51;31.06
40918;BME280;26644;50.248;19.032;2023-04-05T11:20:47;98491.38;;;6.44;31.19
40918;BME280;26644;50.248;19.032;2023-04-05T11:24:01;98495.41;;;6.42;31.16
40918;BME280;26644;50.248;19.032;2023-04-05T11:27:08;98485.38;;;6.08;31.56
40918;BME280;26644;50.248;19.032;2023-04-05T11:30:45;98491.41;;;5.76;32.00
40918;BME280;26644;50.248;19.032;2023-04-05T11:33:56;98485.25;;;5.52;32.07
40918;BME280;26644;50.248;19.032;2023-04-05T11:37:10;98482.03;;;5.38;32.40
40918;BME280;26644;50.248;19.032;2023-04-05T11:40:23;98477.31;;;5.34;32.44
40918;BME280;26644;50.248;19.032;2023-04-05T11:43:29;98476.69;;;5.43;32.30
40918;BME280;26644;50.248;19.032;2023-04-05T11:46:38;98479.75;;;5.47;32.69
40918;BME280;26644;50.248;19.032;2023-04-05T11:49:48;98462.66;;;5.52;32.45
40918;BME280;26644;50.248;19.032;2023-04-05T11:53:07;98481.84;;;5.74;32.04
40918;BME280;26644;50.248;19.032;2023-04-05T11:56:13;98475.47;;;5.85;31.36
40918;BME280;26644;50.248;19.032;2023-04-05T11:59:18;98471.16;;;5.89;31.37
40918;BME280;26644;50.248;19.032;2023-04-05T12:02:25;98479.28;;;5.84;31.91
40918;BME280;26644;50.248;19.032;2023-04-05T12:05:47;98469.72;;;5.82;32.09
40918;BME280;26644;50.248;19.032;2023-04-05T12:08:55;98479.84;;;5.69;32.13
40918;BME280;26644;50.248;19.032;2023-04-05T12:12:00;98478.94;;;5.64;32.71
40918;BME280;26644;50.248;19.032;2023-04-05T12:15:07;98470.84;;;5.69;32.70
40918;BME280;26644;50.248;19.032;2023-04-05T12:18:17;98464.47;;;5.80;32.57
40918;BME280;26644;50.248;19.032;2023-04-05T12:21:23;98476.38;;;5.74;32.77
40918;BME280;26644;50.248;19.032;2023-04-05T12:24:29;98473.31;;;5.70;32.83
40918;BME280;26644;50.248;19.032;2023-04-05T12:27:34;98465.06;;;5.65;33.02
40918;BME280;26644;50.248;19.032;2023-04-05T12:30:48;98459.59;;;5.48;32.59
40918;BME280;26644;50.248;19.032;2023-04-05T12:33:58;98456.06;;;5.48;32.34
40918;BME280;26644;50.248;19.032;2023-04-05T12:37:03;98462.31;;;5.48;32.50
40918;BME280;26644;50.248;19.032;2023-04-05T12:40:09;98461.50;;;5.48;32.19
40918;BME280;26644;50.248;19.032;2023-04-05T12:43:15;98457.31;;;5.57;32.17
40918;BME280;26644;50.248;19.032;2023-04-05T12:46:20;98443.78;;;5.62;31.89
40918;BME280;26644;50.248;19.032;2023-04-05T12:49:35;98449.56;;;5.66;32.09
40918;BME280;26644;50.248;19.032;2023-04-05T12:52:51;98443.09;;;5.89;31.96
40918;BME280;26644;50.248;19.032;2023-04-05T12:56:00;98451.00;;;6.24;32.33
40918;BME280;26644;50.248;19.032;2023-04-05T12:59:09;98457.09;;;6.32;32.00
40918;BME280;26644;50.248;19.032;2023-04-05T13:02:15;98441.50;;;6.27;31.99
40918;BME280;26644;50.248;19.032;2023-04-05T13:05:24;98438.50;;;6.28;31.98
40918;BME280;26644;50.248;19.032;2023-04-05T13:08:31;98455.59;;;6.41;31.99
40918;BME280;26644;50.248;19.032;2023-04-05T13:11:36;98448.03;;;6.26;31.44
40918;BME280;26644;50.248;19.032;2023-04-05T13:14:41;98456.22;;;6.09;31.71
40918;BME280;26644;50.248;19.032;2023-04-05T13:17:45;98450.03;;;5.97;31.67
40918;BME280;26644;50.248;19.032;2023-04-05T13:20:55;98451.88;;;5.91;31.21
40918;BME280;26644;50.248;19.032;2023-04-05T13:23:59;98450.38;;;5.83;31.42
40918;BME280;26644;50.248;19.032;2023-04-05T13:27:05;98440.56;;;5.82;31.02
40918;BME280;26644;50.248;19.032;2023-04-05T13:30:10;98438.47;;;5.89;30.87
40918;BME280;26644;50.248;19.032;2023-04-05T13:33:17;98446.72;;;6.11;31.09
40918;BME280;26644;50.248;19.032;2023-04-05T13:36:24;98442.63;;;6.31;31.62
40918;BME280;26644;50.248;19.032;2023-04-05T13:39:29;98437.13;;;6.26;31.31
40918;BME280;26644;50.248;19.032;2023-04-05T13:42:34;98448.72;;;6.16;31.33
40918;BME280;26644;50.248;19.032;2023-04-05T13:45:39;98456.63;;;6.18;31.88
40918;BME280;26644;50.248;19.032;2023-04-05T13:48:44;98420.16;;;6.02;31.65
40918;BME280;26644;50.248;19.032;2023-04-05T13:51:51;98452.25;;;6.17;31.47
40918;BME280;26644;50.248;19.032;2023-04-05T13:54:56;98432.94;;;6.01;31.37
40918;BME280;26644;50.248;19.032;2023-04-05T13:58:01;98446.63;;;6.06;31.29
40918;BME280;26644;50.248;19.032;2023-04-05T14:01:06;98445.56;;;6.07;31.07
40918;BME280;26644;50.248;19.032;2023-04-05T14:04:14;98449.78;;;6.15;31.06
40918;BME280;26644;50.248;19.032;2023-04-05T14:07:22;98427.53;;;6.23;31.52
40918;BME280;26644;50.248;19.032;2023-04-05T14:10:30;98447.72;;;6.44;31.58
40918;BME280;26644;50.248;19.032;2023-04-05T14:13:34;98445.53;;;6.41;32.01
40918;BME280;26644;50.248;19.032;2023-04-05T14:16:40;98443.44;;;6.32;31.95
40918;BME280;26644;50.248;19.032;2023-04-05T14:19:44;98445.22;;;6.21;32.39
40918;BME280;26644;50.248;19.032;2023-04-05T14:22:52;98446.34;;;6.03;32.38
40918;BME280;26644;50.248;19.032;2023-04-05T14:25:57;98444.09;;;5.83;32.59
40918;BME280;26644;50.248;19.032;2023-04-05T14:29:02;98434.38;;;5.70;32.89
40918;BME280;26644;50.248;19.032;2023-04-05T14:32:07;98444.94;;;5.66;32.71
40918;BME280;26644;50.248;19.032;2023-04-05T14:35:12;98450.19;;;5.56;32.83
40918;BME280;26644;50.248;19.032;2023-04-05T14:38:20;98446.22;;;5.47;32.33
40918;BME280;26644;50.248;19.032;2023-04-05T14:41:26;98442.75;;;5.34;32.59
40918;BME280;26644;50.248;19.032;2023-04-05T14:44:30;98441.25;;;5.26;32.81
40918;BME280;26644;50.248;19.032;2023-04-05T14:47:36;98447.84;;;5.31;33.17
40918;BME280;26644;50.248;19.032;2023-04-05T14:50:40;98446.19;;;5.30;33.00
40918;BME280;26644;50.248;19.032;2023-04-05T14:53:49;98440.44;;;5.26;33.25
40918;BME280;26644;50.248;19.032;2023-04-05T14:56:54;98442.41;;;5.31;33.44
40918;BME280;26644;50.248;19.032;2023-04-05T14:59:59;98439.97;;;5.46;33.42
40918;BME280;26644;50.248;19.032;2023-04-05T15:03:04;98440.72;;;5.58;33.52
40918;BME280;26644;50.248;19.032;2023-04-05T15:06:09;98434.38;;;5.70;32.82
40918;BME280;26644;50.248;19.032;2023-04-05T15:09:17;98436.00;;;5.88;32.79
40918;BME280;26644;50.248;19.032;2023-04-05T15:12:22;98447.47;;;6.07;32.42
40918;BME280;26644;50.248;19.032;2023-04-05T15:15:27;98433.75;;;6.19;32.43
40918;BME280;26644;50.248;19.032;2023-04-05T15:18:33;98446.78;;;6.17;31.96
40918;BME280;26644;50.248;19.032;2023-04-05T15:21:38;98438.38;;;6.01;31.92
40918;BME280;26644;50.248;19.032;2023-04-05T15:24:47;98431.56;;;5.82;32.11
40918;BME280;26644;50.248;19.032;2023-04-05T15:27:52;98438.34;;;5.79;32.00
40918;BME280;26644;50.248;19.032;2023-04-05T15:30:59;98438.97;;;5.69;31.71
40918;BME280;26644;50.248;19.032;2023-04-05T15:34:03;98424.78;;;5.50;32.16
40918;BME280;26644;50.248;19.032;2023-04-05T15:37:09;98433.09;;;5.43;32.06
40918;BME280;26644;50.248;19.032;2023-04-05T15:40:17;98437.72;;;5.43;32.33
40918;BME280;26644;50.248;19.032;2023-04-05T15:43:22;98431.69;;;5.41;32.90
40918;BME280;26644;50.248;19.032;2023-04-05T15:46:27;98436.56;;;5.39;32.73
40918;BME280;26644;50.248;19.032;2023-04-05T15:49:32;98438.97;;;5.35;33.02
40918;BME280;26644;50.248;19.032;2023-04-05T15:52:37;98421.28;;;5.21;32.81
40918;BME280;26644;50.248;19.032;2023-04-05T15:55:45;98438.69;;;5.20;32.60
40918;BME280;26644;50.248;19.032;2023-04-05T15:58:50;98431.47;;;5.14;32.97
40918;BME280;26644;50.248;19.032;2023-04-05T16:01:55;98429.66;;;5.02;33.27
40918;BME280;26644;50.248;19.032;2023-04-05T16:05:00;98441.09;;;5.04;33.29
40918;BME280;26644;50.248;19.032;2023-04-05T16:08:05;98441.34;;;5.03;33.44
40918;BME280;26644;50.248;19.032;2023-04-05T16:11:12;98420.47;;;4.91;33.53
40918;BME280;26644;50.248;19.032;2023-04-05T16:14:18;98433.34;;;4.96;34.02
40918;BME280;26644;50.248;19.032;2023-04-05T16:17:22;98422.25;;;4.86;34.22
40918;BME280;26644;50.248;19.032;2023-04-05T16:20:29;98437.50;;;4.87;34.25
40918;BME280;26644;50.248;19.032;2023-04-05T16:23:34;98423.59;;;4.71;34.47
40918;BME280;26644;50.248;19.032;2023-04-05T16:26:42;98437.09;;;4.78;34.59
40918;BME280;26644;50.248;19.032;2023-04-05T16:29:47;98438.16;;;4.77;35.01
40918;BME280;26644;50.248;19.032;2023-04-05T16:32:53;98435.31;;;4.72;35.14